createdAt,value
2022-12-04T00:00:09.192Z,100040.09
2022-12-04T00:01:15.264Z,100038.56
2022-12-04T00:02:16.898Z,100047.72
2022-12-04T00:03:19.563Z,100052.28
2022-12-04T00:04:21.569Z,100046.00
2022-12-04T00:05:24.306Z,100046.19
2022-12-04T00:06:26.460Z,100057.06
2022-12-04T00:07:29.204Z,100056.50
2022-12-04T00:08:30.965Z,100057.38
2022-12-04T00:09:33.656Z,100057.56
2022-12-04T00:10:35.320Z,100052.28
2022-12-04T00:11:38.157Z,100062.28
2022-12-04T00:12:39.808Z,100060.28
2022-12-04T00:13:42.794Z,100065.69
2022-12-04T00:15:16.451Z,100067.56
2022-12-04T00:16:08.429Z,100067.56
2022-12-04T00:17:11.669Z,100070.44
2022-12-04T00:18:14.409Z,100070.28
2022-12-04T00:19:16.264Z,100071.13
2022-12-04T00:20:19.236Z,100070.09
2022-12-04T00:21:22.079Z,100064.66
2022-12-04T00:22:24.722Z,100067.91
2022-12-04T00:23:26.461Z,100073.16
2022-12-04T00:24:29.142Z,100068.59
2022-12-04T00:25:31.247Z,100063.16
2022-12-04T00:26:35.398Z,100067.56
2022-12-04T00:27:37.130Z,100065.00
2022-12-04T00:28:40.099Z,100064.88
2022-12-04T00:29:41.765Z,100068.59
2022-12-04T00:30:45.056Z,100063.16
2022-12-04T00:31:47.824Z,100066.06
2022-12-04T00:32:50.954Z,100066.88
2022-12-04T00:33:54.308Z,100063.34
2022-12-04T00:34:55.999Z,100068.78
2022-12-04T00:35:59.851Z,100072.31
2022-12-04T00:37:01.546Z,100064.16
2022-12-04T00:38:04.538Z,100066.72
2022-12-04T00:39:07.412Z,100061.44
2022-12-04T00:40:09.783Z,100054.34
2022-12-04T00:41:13.582Z,100058.22
2022-12-04T00:42:16.251Z,100066.72
2022-12-04T00:43:18.185Z,100066.00
2022-12-04T00:44:20.896Z,100070.75
2022-12-04T00:45:22.829Z,100065.97
2022-12-04T00:46:25.911Z,100073.13
2022-12-04T00:47:27.756Z,100075.97
2022-12-04T00:48:31.781Z,100077.00
2022-12-04T00:49:33.485Z,100075.28
2022-12-04T00:50:36.187Z,100062.91
2022-12-04T00:51:39.018Z,100063.91
2022-12-04T00:52:41.816Z,100059.50
2022-12-04T00:53:43.694Z,100063.75
2022-12-04T00:54:46.359Z,100064.78
2022-12-04T00:55:48.075Z,100059.34
2022-12-04T00:56:50.843Z,100059.69
2022-12-04T00:57:57.113Z,100058.69
2022-12-04T00:59:02.668Z,100058.69
2022-12-04T01:00:05.506Z,100060.69
2022-12-04T01:01:10.537Z,100048.66
2022-12-04T01:02:12.269Z,100048.50
2022-12-04T01:03:15.039Z,100046.78
2022-12-04T01:04:19.399Z,100045.94
2022-12-04T01:05:21.306Z,100034.25
2022-12-04T01:06:26.076Z,100036.97
2022-12-04T01:07:27.813Z,100041.69
2022-12-04T01:08:30.587Z,100038.97
2022-12-04T01:09:32.451Z,100041.69
2022-12-04T01:10:35.491Z,100046.41
2022-12-04T01:11:38.458Z,100050.84
2022-12-04T01:12:40.190Z,100049.84
2022-12-04T01:13:42.844Z,100048.81
2022-12-04T01:14:44.560Z,100051.34
2022-12-04T01:15:49.193Z,100052.06
2022-12-04T01:16:50.999Z,100050.19
2022-12-04T01:17:53.687Z,100049.19
2022-12-04T01:18:55.505Z,100046.13
2022-12-04T01:19:59.602Z,100043.41
2022-12-04T01:21:01.406Z,100045.97
2022-12-04T01:22:04.806Z,100052.25
2022-12-04T01:23:06.539Z,100050.38
2022-12-04T01:24:09.963Z,100044.13
2022-12-04T01:25:11.645Z,100048.34
2022-12-04T01:26:14.631Z,100046.34
2022-12-04T01:27:16.331Z,100039.88
2022-12-04T01:28:19.085Z,100031.56
2022-12-04T01:29:20.791Z,100033.28
2022-12-04T01:30:23.528Z,100038.00
2022-12-04T01:31:25.327Z,100041.59
2022-12-04T01:32:28.170Z,100035.31
2022-12-04T01:33:30.743Z,100030.72
2022-12-04T01:34:33.532Z,100027.84
2022-12-04T01:35:36.785Z,100030.56
2022-12-04T01:36:39.609Z,100028.88
2022-12-04T01:37:41.337Z,100027.34
2022-12-04T01:38:44.401Z,100034.44
2022-12-04T01:39:46.106Z,100031.72
2022-12-04T01:40:49.059Z,100028.19
2022-12-04T01:41:50.791Z,100021.38
2022-12-04T01:42:53.522Z,100014.44
2022-12-04T01:44:13.020Z,100013.72
2022-12-04T01:45:46.259Z,100016.78
2022-12-04T01:46:50.738Z,100014.41
2022-12-04T01:47:55.191Z,100022.72
2022-12-04T01:48:57.874Z,100019.28
2022-12-04T01:49:59.802Z,100026.44
2022-12-04T01:51:08.656Z,100029.13
2022-12-04T01:52:13.000Z,100022.72
2022-12-04T01:53:16.138Z,100022.72
2022-12-04T01:54:20.823Z,100020.69
2022-12-04T01:55:23.578Z,100027.78
2022-12-04T01:56:29.656Z,100034.78
2022-12-04T01:57:33.463Z,100033.75
2022-12-04T01:58:37.870Z,100031.72
2022-12-04T01:59:44.707Z,100038.84
2022-12-04T02:00:51.627Z,100033.41
2022-12-04T02:01:58.513Z,100040.56
2022-12-04T02:03:00.570Z,100049.56
2022-12-04T02:04:03.766Z,100042.41
2022-12-04T02:05:08.617Z,100045.78
2022-12-04T02:06:12.674Z,100048.50
2022-12-04T02:07:14.661Z,100051.06
2022-12-04T02:08:17.587Z,100037.50
2022-12-04T02:09:26.195Z,100041.22
2022-12-04T02:10:36.380Z,100039.50
2022-12-04T02:11:41.076Z,100037.00
2022-12-04T02:12:49.488Z,100050.56
2022-12-04T02:13:57.468Z,100053.28
2022-12-04T02:15:05.247Z,100047.66
2022-12-04T02:16:11.939Z,100039.50
2022-12-04T02:17:21.604Z,100040.38
2022-12-04T02:18:28.710Z,100032.56
2022-12-04T02:19:50.206Z,100039.69
2022-12-04T02:20:56.678Z,100035.13
2022-12-04T02:22:03.853Z,100036.81
2022-12-04T02:23:29.642Z,100037.34
2022-12-04T02:24:48.246Z,100035.31
2022-12-04T02:25:56.689Z,100040.56
2022-12-04T02:27:02.395Z,100032.28
2022-12-04T02:28:09.005Z,100040.94
2022-12-04T02:29:13.739Z,100045.16
2022-12-04T02:30:15.646Z,100045.16
2022-12-04T02:31:20.640Z,100048.56
2022-12-04T02:32:24.873Z,100044.16
2022-12-04T02:33:29.015Z,100039.56
2022-12-04T02:34:39.635Z,100050.44
2022-12-04T02:35:45.382Z,100046.88
2022-12-04T02:36:50.433Z,100053.16
2022-12-04T02:37:56.867Z,100053.16
2022-12-04T02:39:04.652Z,100054.00
2022-12-04T02:40:09.546Z,100046.88
2022-12-04T02:41:15.656Z,100048.56
2022-12-04T02:42:20.614Z,100040.44
2022-12-04T02:43:26.293Z,100045.88
2022-12-04T02:44:31.099Z,100044.00
2022-12-04T02:45:39.662Z,100041.28
2022-12-04T02:46:44.255Z,100043.84
2022-12-04T02:47:47.727Z,100041.94
2022-12-04T02:48:51.794Z,100032.97
2022-12-04T02:49:57.827Z,100032.81
2022-12-04T02:51:01.100Z,100046.22
2022-12-04T02:52:05.040Z,100033.66
2022-12-04T02:53:09.531Z,100036.38
2022-12-04T02:54:16.162Z,100039.22
2022-12-04T02:55:21.832Z,100031.09
2022-12-04T02:56:27.132Z,100032.13
2022-12-04T02:57:32.047Z,100033.16
2022-12-04T02:58:39.070Z,100034.31
2022-12-04T02:59:42.549Z,100034.31
2022-12-04T03:00:46.877Z,100035.34
2022-12-04T03:01:55.319Z,100035.34
2022-12-04T03:03:01.855Z,100028.88
2022-12-04T03:04:08.804Z,100027.00
2022-12-04T03:05:14.746Z,100028.88
2022-12-04T03:06:19.299Z,100036.19
2022-12-04T03:07:26.391Z,100031.78
2022-12-04T03:08:33.082Z,100036.50
2022-12-04T03:09:38.551Z,100031.41
2022-12-04T03:10:43.895Z,100032.28
2022-12-04T03:11:51.320Z,100029.88
2022-12-04T03:12:55.046Z,100031.56
2022-12-04T03:14:03.154Z,100039.72
2022-12-04T03:15:08.170Z,100044.13
2022-12-04T03:16:14.731Z,100040.41
2022-12-04T03:17:20.120Z,100040.41
2022-12-04T03:18:25.199Z,100042.28
2022-12-04T03:19:28.952Z,100033.28
2022-12-04T03:20:33.634Z,100038.00
2022-12-04T03:21:38.370Z,100031.56
2022-12-04T03:22:44.337Z,100033.63
2022-12-04T03:23:48.477Z,100036.34
2022-12-04T03:24:53.221Z,100028.00
2022-12-04T03:25:59.360Z,100029.88
2022-12-04T03:27:05.667Z,100020.22
2022-12-04T03:28:09.996Z,100031.91
2022-12-04T03:29:17.089Z,100024.78
2022-12-04T03:30:21.843Z,100032.94
2022-12-04T03:31:32.308Z,100032.78
2022-12-04T03:32:36.562Z,100028.00
2022-12-04T03:33:41.764Z,100028.00
2022-12-04T03:34:51.739Z,100021.56
2022-12-04T03:35:58.444Z,100015.28
2022-12-04T03:37:04.129Z,100011.91
2022-12-04T03:38:13.751Z,100019.88
2022-12-04T03:39:19.577Z,100022.44
2022-12-04T03:40:25.019Z,100017.84
2022-12-04T03:41:29.779Z,100017.66
2022-12-04T03:42:37.151Z,100021.41
2022-12-04T03:43:44.482Z,100014.13
2022-12-04T03:44:50.928Z,100010.38
2022-12-04T03:45:56.393Z,100012.25
2022-12-04T03:47:02.808Z,100019.56
2022-12-04T03:48:07.905Z,100014.13
2022-12-04T03:49:13.842Z,100009.72
2022-12-04T03:50:20.686Z,100011.41
2022-12-04T03:51:24.052Z,100006.16
2022-12-04T03:52:31.350Z,100009.72
2022-12-04T03:53:36.948Z,100008.84
2022-12-04T03:54:43.734Z,100013.28
2022-12-04T03:55:47.411Z,100001.38
2022-12-04T03:56:52.991Z,100007.34
2022-12-04T03:57:59.485Z,100008.88
2022-12-04T03:59:06.942Z,100009.88
2022-12-04T04:00:12.400Z,100005.50
2022-12-04T04:01:16.479Z,100000.91
2022-12-04T04:02:20.538Z,100000.91
2022-12-04T04:03:26.187Z,99993.78
2022-12-04T04:04:31.240Z,99996.50
2022-12-04T04:05:35.338Z,99994.63
2022-12-04T04:06:39.244Z,100001.22
2022-12-04T04:07:44.890Z,100000.22
2022-12-04T04:08:49.277Z,100001.06
2022-12-04T04:09:59.657Z,99994.94
2022-12-04T04:11:08.487Z,99991.56
2022-12-04T04:12:13.178Z,99996.13
2022-12-04T04:13:36.811Z,99998.84
2022-12-04T04:15:00.772Z,99993.75
2022-12-04T04:16:20.471Z,99996.44
2022-12-04T04:17:45.428Z,99994.94
2022-12-04T04:19:06.825Z,99995.09
2022-12-04T04:20:30.714Z,99990.66
2022-12-04T04:21:52.433Z,99990.00
2022-12-04T04:23:15.466Z,99988.47
2022-12-04T04:24:28.567Z,99990.50
2022-12-04T04:25:31.083Z,99990.84
2022-12-04T04:26:38.500Z,99999.13
2022-12-04T04:27:40.243Z,100001.16
2022-12-04T04:28:43.764Z,99996.72
2022-12-04T04:29:52.045Z,100000.50
2022-12-04T04:30:59.301Z,99992.34
2022-12-04T04:32:06.199Z,99995.06
2022-12-04T04:33:12.486Z,99994.88
2022-12-04T04:34:19.880Z,99991.31
2022-12-04T04:35:24.218Z,100001.00
2022-12-04T04:36:32.043Z,99996.94
2022-12-04T04:37:38.061Z,99998.66
2022-12-04T04:38:43.479Z,99999.31
2022-12-04T04:39:50.727Z,100009.84
2022-12-04T04:40:57.509Z,100003.41
2022-12-04T04:42:04.249Z,100000.50
2022-12-04T04:43:10.443Z,100003.78
2022-12-04T04:44:17.456Z,99999.00
2022-12-04T04:45:23.720Z,100000.72
2022-12-04T04:46:31.095Z,99999.88
2022-12-04T04:47:39.935Z,99999.88
2022-12-04T04:48:45.151Z,99989.16
2022-12-04T04:49:47.707Z,99994.78
2022-12-04T04:50:51.352Z,99998.34
2022-12-04T04:51:53.862Z,99994.78
2022-12-04T04:53:00.102Z,99996.63
2022-12-04T04:54:05.048Z,100007.50
2022-12-04T04:55:08.863Z,99996.63
2022-12-04T04:56:10.533Z,100002.06
2022-12-04T04:57:13.254Z,99996.63
2022-12-04T04:58:16.665Z,99995.94
2022-12-04T04:59:19.450Z,99997.66
2022-12-04T05:00:22.562Z,99998.50
2022-12-04T05:01:28.128Z,99998.81
2022-12-04T05:02:29.988Z,100001.53
2022-12-04T05:03:34.888Z,99990.00
2022-12-04T05:04:36.589Z,99994.59
2022-12-04T05:05:39.288Z,99995.78
2022-12-04T05:06:41.129Z,99996.59
2022-12-04T05:07:43.946Z,99992.22
2022-12-04T05:08:46.303Z,99994.91
2022-12-04T05:09:49.484Z,99994.06
2022-12-04T05:10:51.379Z,99985.06
2022-12-04T05:11:54.105Z,99979.81
2022-12-04T05:12:55.777Z,99975.22
2022-12-04T05:13:58.484Z,99982.00
2022-12-04T05:15:00.340Z,99982.00
2022-12-04T05:16:04.719Z,99981.00
2022-12-04T05:17:10.900Z,99983.16
2022-12-04T05:18:15.328Z,99983.34
2022-12-04T05:19:39.414Z,99987.22
2022-12-04T05:20:41.275Z,99994.50
2022-12-04T05:21:42.953Z,99992.16
2022-12-04T05:22:45.647Z,99986.88
2022-12-04T05:23:47.444Z,99992.16
2022-12-04T05:24:50.197Z,99992.16
2022-12-04T05:25:59.227Z,99987.56
2022-12-04T05:27:01.856Z,99987.56
2022-12-04T05:28:03.583Z,99989.59
2022-12-04T05:29:06.700Z,99986.88
2022-12-04T05:30:11.911Z,99986.03
2022-12-04T05:31:13.607Z,99991.44
2022-12-04T05:32:16.480Z,99999.78
2022-12-04T05:33:18.171Z,99992.47
2022-12-04T05:34:22.213Z,100000.63
2022-12-04T05:35:23.945Z,100001.63
2022-12-04T05:36:26.591Z,99996.19
2022-12-04T05:37:28.378Z,100002.63
2022-12-04T05:38:31.355Z,100000.06
2022-12-04T05:39:34.089Z,100003.81
2022-12-04T05:40:37.442Z,100001.28
2022-12-04T05:41:39.197Z,99992.28
2022-12-04T05:42:41.855Z,99995.31
2022-12-04T05:43:43.533Z,99996.50
2022-12-04T05:44:46.158Z,99994.78
2022-12-04T05:45:47.904Z,99996.81
2022-12-04T05:46:50.619Z,100006.13
2022-12-04T05:47:52.472Z,100001.53
2022-12-04T05:48:55.136Z,100006.31
2022-12-04T05:49:58.390Z,100013.59
2022-12-04T05:51:01.402Z,100006.44
2022-12-04T05:52:04.295Z,100008.81
2022-12-04T05:53:06.953Z,100011.53
2022-12-04T05:54:08.652Z,100011.53
2022-12-04T05:55:11.418Z,100006.31
2022-12-04T05:56:13.284Z,100008.81
2022-12-04T05:57:15.956Z,100015.97
2022-12-04T05:58:17.640Z,100010.53
2022-12-04T05:59:20.306Z,100011.38
2022-12-04T06:00:22.209Z,100005.97
2022-12-04T06:01:25.949Z,100009.38
2022-12-04T06:02:27.725Z,100003.78
2022-12-04T06:03:30.524Z,100006.31
2022-12-04T06:04:32.399Z,100008.34
2022-12-04T06:05:36.432Z,100005.63
2022-12-04T06:06:38.540Z,100005.63
2022-12-04T06:07:41.354Z,100008.34
2022-12-04T06:08:43.146Z,100010.22
2022-12-04T06:09:45.943Z,100010.22
2022-12-04T06:10:47.604Z,100009.69
2022-12-04T06:11:50.282Z,100009.69
2022-12-04T06:12:57.127Z,100011.38
2022-12-04T06:14:00.829Z,100009.69
2022-12-04T06:15:02.619Z,100015.44
2022-12-04T06:16:05.827Z,100015.44
2022-12-04T06:17:08.578Z,100020.72
2022-12-04T06:18:10.295Z,100014.44
2022-12-04T06:19:14.988Z,100021.53
2022-12-04T06:20:16.917Z,100009.16
2022-12-04T06:21:21.571Z,100011.72
2022-12-04T06:22:23.386Z,100012.72
2022-12-04T06:23:26.031Z,100016.28
2022-12-04T06:24:28.759Z,100012.72
2022-12-04T06:25:30.486Z,100010.69
2022-12-04T06:26:33.575Z,100011.03
2022-12-04T06:27:35.641Z,100018.31
2022-12-04T06:28:38.706Z,100014.59
2022-12-04T06:29:40.415Z,100021.88
2022-12-04T06:30:43.054Z,100011.50
2022-12-04T06:31:44.746Z,100015.94
2022-12-04T06:32:47.584Z,100017.94
2022-12-04T06:33:50.525Z,100015.06
2022-12-04T06:34:53.880Z,100013.06
2022-12-04T06:35:59.108Z,100017.94
2022-12-04T06:37:03.143Z,100004.56
2022-12-04T06:38:04.833Z,100009.81
2022-12-04T06:39:07.678Z,100011.00
2022-12-04T06:40:10.168Z,100011.84
2022-12-04T06:41:15.127Z,100002.88
2022-12-04T06:42:17.171Z,100010.28
2022-12-04T06:43:19.855Z,100003.16
2022-12-04T06:44:21.614Z,100012.16
2022-12-04T06:45:24.443Z,100005.22
2022-12-04T06:46:27.730Z,100010.47
2022-12-04T06:47:30.476Z,100001.50
2022-12-04T06:48:32.574Z,100005.22
2022-12-04T06:49:36.203Z,100005.50
2022-12-04T06:50:38.102Z,100012.25
2022-12-04T06:51:41.111Z,100006.00
2022-12-04T06:52:44.192Z,100007.69
2022-12-04T06:53:47.087Z,100009.41
2022-12-04T06:54:48.794Z,100014.81
2022-12-04T06:55:51.439Z,100013.13
2022-12-04T06:56:53.118Z,100015.69
2022-12-04T06:57:55.860Z,100017.22
2022-12-04T06:58:59.226Z,100008.06
2022-12-04T07:00:01.928Z,100007.91
2022-12-04T07:01:08.066Z,100011.28
2022-12-04T07:02:10.982Z,100011.28
2022-12-04T07:03:12.752Z,100006.72
2022-12-04T07:04:15.569Z,100001.63
2022-12-04T07:05:17.303Z,100007.91
2022-12-04T07:06:21.432Z,100014.81
2022-12-04T07:07:23.359Z,100012.13
2022-12-04T07:08:27.501Z,100009.88
2022-12-04T07:09:29.188Z,100006.47
2022-12-04T07:10:31.835Z,100007.19
2022-12-04T07:11:34.128Z,100001.38
2022-12-04T07:12:36.828Z,100004.25
2022-12-04T07:13:38.661Z,99997.97
2022-12-04T07:14:41.618Z,99996.13
2022-12-04T07:15:43.302Z,99994.44
2022-12-04T07:16:46.033Z,99994.25
2022-12-04T07:17:47.944Z,99991.56
2022-12-04T07:18:53.266Z,99983.41
2022-12-04T07:19:55.077Z,99990.69
2022-12-04T07:20:58.219Z,99994.44
2022-12-04T07:22:00.977Z,99994.59
2022-12-04T07:23:07.024Z,99992.84
2022-12-04T07:24:15.761Z,99993.38
2022-12-04T07:25:17.599Z,99991.50
2022-12-04T07:26:21.145Z,99993.88
2022-12-04T07:27:22.905Z,99991.38
2022-12-04T07:28:25.761Z,100000.00
2022-12-04T07:29:28.474Z,99997.47
2022-12-04T07:30:30.233Z,100002.72
2022-12-04T07:31:32.988Z,99996.59
2022-12-04T07:32:34.775Z,99996.78
2022-12-04T07:33:38.139Z,99997.78
2022-12-04T07:34:39.830Z,99997.09
2022-12-04T07:35:42.562Z,99994.56
2022-12-04T07:36:45.249Z,99987.56
2022-12-04T07:37:46.993Z,99997.91
2022-12-04T07:38:50.356Z,99998.56
2022-12-04T07:39:53.837Z,100004.31
2022-12-04T07:40:57.107Z,100002.63
2022-12-04T07:41:58.905Z,99996.66
2022-12-04T07:43:01.747Z,99992.09
2022-12-04T07:44:03.536Z,99997.00
2022-12-04T07:45:06.998Z,99994.44
2022-12-04T07:46:10.906Z,99999.47
2022-12-04T07:47:13.639Z,100001.34
2022-12-04T07:48:15.305Z,100005.59
2022-12-04T07:49:18.120Z,99997.28
2022-12-04T07:50:19.956Z,99997.16
2022-12-04T07:51:24.101Z,99999.84
2022-12-04T07:52:25.852Z,99998.66
2022-12-04T07:53:28.509Z,100003.09
2022-12-04T07:54:30.366Z,100008.34
2022-12-04T07:55:34.386Z,100009.03
2022-12-04T07:56:37.135Z,100008.88
2022-12-04T07:57:38.817Z,100010.75
2022-12-04T07:58:42.270Z,100014.31
2022-12-04T07:59:44.999Z,100020.25
2022-12-04T08:00:46.681Z,100021.94
2022-12-04T08:01:49.402Z,100032.66
2022-12-04T08:02:51.137Z,100029.94
2022-12-04T08:03:56.379Z,100025.38
2022-12-04T08:04:58.087Z,100031.47
2022-12-04T08:06:01.493Z,100026.75
2022-12-04T08:07:04.177Z,100018.75
2022-12-04T08:08:06.103Z,100018.47
2022-12-04T08:09:10.252Z,100022.69
2022-12-04T08:10:12.385Z,100024.41
2022-12-04T08:11:18.502Z,100027.78
2022-12-04T08:12:20.317Z,100034.06
2022-12-04T08:13:23.012Z,100033.06
2022-12-04T08:14:25.787Z,100029.34
2022-12-04T08:15:27.501Z,100023.78
2022-12-04T08:16:32.040Z,100024.59
2022-12-04T08:17:33.899Z,100028.00
2022-12-04T08:18:36.686Z,100025.44
2022-12-04T08:19:39.381Z,100032.72
2022-12-04T08:20:41.278Z,100025.78
2022-12-04T08:21:44.030Z,100025.06
2022-12-04T08:22:45.740Z,100027.25
2022-12-04T08:23:49.905Z,100023.03
2022-12-04T08:24:51.813Z,100021.66
2022-12-04T08:25:54.510Z,100020.09
2022-12-04T08:26:57.776Z,100031.09
2022-12-04T08:28:00.432Z,100022.28
2022-12-04T08:29:03.114Z,100018.19
2022-12-04T08:30:07.143Z,100022.53
2022-12-04T08:31:13.000Z,100021.63
2022-12-04T08:32:15.741Z,100014.50
2022-12-04T08:33:17.534Z,100010.41
2022-12-04T08:34:20.215Z,100009.41
2022-12-04T08:35:22.201Z,100007.00
2022-12-04T08:36:25.311Z,100008.84
2022-12-04T08:37:27.902Z,100012.25
2022-12-04T08:38:30.555Z,100005.16
2022-12-04T08:39:32.236Z,100007.19
2022-12-04T08:40:34.956Z,100003.75
2022-12-04T08:41:36.969Z,100001.19
2022-12-04T08:42:40.986Z,100003.09
2022-12-04T08:43:42.736Z,100012.75
2022-12-04T08:44:45.359Z,100009.50
2022-12-04T08:45:55.156Z,100013.22
2022-12-04T08:46:57.862Z,100015.41
2022-12-04T08:47:59.616Z,100007.09
2022-12-04T08:49:02.519Z,100015.94
2022-12-04T08:50:05.231Z,100008.50
2022-12-04T08:51:09.094Z,100011.22
2022-12-04T08:52:11.777Z,100000.38
2022-12-04T08:53:13.523Z,100005.63
2022-12-04T08:54:16.300Z,100003.75
2022-12-04T08:55:18.458Z,99999.72
2022-12-04T08:56:21.129Z,100001.44
2022-12-04T08:57:23.791Z,99990.59
2022-12-04T08:58:26.858Z,99991.06
2022-12-04T08:59:29.595Z,99988.69
2022-12-04T09:00:31.748Z,99990.56
2022-12-04T09:01:34.620Z,99996.72
2022-12-04T09:02:36.343Z,99994.72
2022-12-04T09:03:39.735Z,99995.78
2022-12-04T09:04:41.587Z,99995.78
2022-12-04T09:05:45.921Z,100002.91
2022-12-04T09:06:47.713Z,100000.06
2022-12-04T09:07:50.477Z,100000.91
2022-12-04T09:08:53.919Z,100003.16
2022-12-04T09:09:56.993Z,100004.53
2022-12-04T09:11:03.311Z,100006.03
2022-12-04T09:12:06.126Z,100003.91
2022-12-04T09:13:08.546Z,100007.84
2022-12-04T09:14:13.054Z,100011.06
2022-12-04T09:15:15.053Z,100007.34
2022-12-04T09:16:19.457Z,100017.88
2022-12-04T09:17:21.163Z,100016.00
2022-12-04T09:18:23.886Z,100011.25
2022-12-04T09:19:26.783Z,100010.59
2022-12-04T09:20:28.427Z,100010.97
2022-12-04T09:21:31.252Z,100007.25
2022-12-04T09:22:57.922Z,100011.13
2022-12-04T09:23:56.822Z,100005.06
2022-12-04T09:24:58.474Z,100007.78
2022-12-04T09:26:01.267Z,100007.28
2022-12-04T09:27:03.093Z,100008.81
2022-12-04T09:28:06.146Z,100003.09
2022-12-04T09:29:07.872Z,99998.03
2022-12-04T09:30:13.639Z,100005.00
2022-12-04T09:31:16.002Z,100000.41
2022-12-04T09:32:18.872Z,100007.22
2022-12-04T09:33:20.562Z,100009.28
2022-12-04T09:34:23.263Z,100006.25
2022-12-04T09:35:24.942Z,100009.31
2022-12-04T09:36:27.879Z,100005.59
2022-12-04T09:37:29.657Z,100003.41
2022-12-04T09:38:32.585Z,99997.31
2022-12-04T09:39:35.391Z,100006.31
2022-12-04T09:40:40.185Z,100001.72
2022-12-04T09:42:04.460Z,100005.25
2022-12-04T09:43:13.517Z,99998.16
2022-12-04T09:44:19.921Z,99996.78
2022-12-04T09:45:25.956Z,100003.03
2022-12-04T09:46:33.805Z,99997.81
2022-12-04T09:47:40.479Z,100005.94
2022-12-04T09:48:43.260Z,100009.81
2022-12-04T09:49:48.751Z,99997.97
2022-12-04T09:50:50.761Z,100006.44
2022-12-04T09:51:55.770Z,100001.00
2022-12-04T09:53:00.045Z,99998.09
2022-12-04T09:54:05.606Z,100000.81
2022-12-04T09:55:15.610Z,99998.09
2022-12-04T09:56:20.726Z,100000.81
2022-12-04T09:57:27.962Z,100004.56
2022-12-04T09:58:38.985Z,100006.56
2022-12-04T09:59:41.993Z,100010.63
2022-12-04T10:00:48.736Z,100002.16
2022-12-04T10:01:55.252Z,100004.19
2022-12-04T10:03:01.901Z,99999.44
2022-12-04T10:04:06.536Z,100003.88
2022-12-04T10:05:17.704Z,99997.44
2022-12-04T10:06:24.382Z,99999.28
2022-12-04T10:07:31.308Z,100000.44
2022-12-04T10:08:36.535Z,99997.75
2022-12-04T10:09:43.607Z,100003.00
2022-12-04T10:10:51.059Z,99999.63
2022-12-04T10:11:57.812Z,99995.03
2022-12-04T10:13:06.866Z,99993.03
2022-12-04T10:14:44.858Z,99986.91
2022-12-04T10:15:53.618Z,99992.16
2022-12-04T10:17:16.431Z,99978.09
2022-12-04T10:18:37.564Z,99981.97
2022-12-04T10:19:45.867Z,99980.09
2022-12-04T10:20:57.222Z,99984.53
2022-12-04T10:22:05.454Z,99977.03
2022-12-04T10:23:15.384Z,99973.47
2022-12-04T10:24:24.510Z,99967.56
2022-12-04T10:25:27.991Z,99969.44
2022-12-04T10:26:34.959Z,99960.97
2022-12-04T10:27:42.320Z,99965.91
2022-12-04T10:28:52.002Z,99966.75
2022-12-04T10:30:04.242Z,99969.63
2022-12-04T10:31:12.735Z,99967.44
2022-12-04T10:32:18.897Z,99968.97
2022-12-04T10:33:25.369Z,99966.44
2022-12-04T10:34:29.384Z,99963.22
2022-12-04T10:35:33.650Z,99969.34
2022-12-04T10:36:35.659Z,99972.06
2022-12-04T10:37:41.372Z,99965.78
2022-12-04T10:38:45.857Z,99968.50
2022-12-04T10:39:53.373Z,99975.44
2022-12-04T10:40:56.474Z,99970.72
2022-12-04T10:42:01.680Z,99964.28
2022-12-04T10:43:07.649Z,99970.22
2022-12-04T10:44:14.799Z,99960.94
2022-12-04T10:45:25.168Z,99952.78
2022-12-04T10:46:29.573Z,99960.25
2022-12-04T10:47:32.458Z,99954.50
2022-12-04T10:48:36.444Z,99955.38
2022-12-04T10:49:39.828Z,99947.03
2022-12-04T10:50:42.552Z,99952.16
2022-12-04T10:51:45.010Z,99949.09
2022-12-04T10:52:47.832Z,99940.09
2022-12-04T10:53:50.086Z,99948.25
2022-12-04T10:54:56.490Z,99940.81
2022-12-04T10:56:08.978Z,99935.19
2022-12-04T10:57:13.939Z,99939.44
2022-12-04T10:58:16.725Z,99943.31
2022-12-04T10:59:19.385Z,99937.72
2022-12-04T11:00:29.700Z,99936.88
2022-12-04T11:01:34.976Z,99940.09
2022-12-04T11:02:38.834Z,99940.25
2022-12-04T11:03:58.397Z,99935.69
2022-12-04T11:05:02.743Z,99930.09
2022-12-04T11:06:07.193Z,99923.81
2022-12-04T11:07:20.504Z,99925.38
2022-12-04T11:08:24.554Z,99928.09
2022-12-04T11:09:30.538Z,99929.75
2022-12-04T11:10:36.119Z,99929.94
2022-12-04T11:11:39.295Z,99926.91
2022-12-04T11:12:42.011Z,99934.03
2022-12-04T11:13:43.729Z,99930.31
2022-12-04T11:14:47.417Z,99921.13
2022-12-04T11:15:51.608Z,99916.75
2022-12-04T11:17:04.005Z,99913.53
2022-12-04T11:18:09.898Z,99917.59
2022-12-04T11:19:24.174Z,99908.59
2022-12-04T11:20:28.401Z,99909.09
2022-12-04T11:21:31.157Z,99910.28
2022-12-04T11:22:38.746Z,99911.31
2022-12-04T11:23:45.591Z,99907.56
2022-12-04T11:24:52.508Z,99899.41
2022-12-04T11:26:02.092Z,99902.97
2022-12-04T11:27:17.171Z,99904.69
2022-12-04T11:28:41.205Z,99905.38
2022-12-04T11:29:46.453Z,99899.97
2022-12-04T11:30:50.291Z,99886.91
2022-12-04T11:31:54.835Z,99903.84
2022-12-04T11:32:59.290Z,99902.13
2022-12-04T11:34:03.750Z,99902.13
2022-12-04T11:35:14.332Z,99905.03
2022-12-04T11:36:22.460Z,99903.66
2022-12-04T11:37:27.084Z,99901.78
2022-12-04T11:38:30.247Z,99899.59
2022-12-04T11:39:36.678Z,99899.59
2022-12-04T11:40:39.511Z,99902.63
2022-12-04T11:41:41.339Z,99911.47
2022-12-04T11:42:44.178Z,99905.03
2022-12-04T11:43:48.739Z,99918.91
2022-12-04T11:44:53.752Z,99916.75
2022-12-04T11:45:57.894Z,99913.84
2022-12-04T11:47:02.380Z,99921.81
2022-12-04T11:48:16.099Z,99920.63
2022-12-04T11:49:21.867Z,99917.09
2022-12-04T11:50:31.890Z,99920.63
2022-12-04T11:51:44.379Z,99916.22
2022-12-04T11:52:59.163Z,99916.91
2022-12-04T11:54:06.935Z,99910.97
2022-12-04T11:55:15.220Z,99907.41
2022-12-04T11:56:25.268Z,99909.09
2022-12-04T11:57:32.080Z,99908.09
2022-12-04T11:58:46.188Z,99906.38
2022-12-04T12:00:10.823Z,99904.34
2022-12-04T12:01:24.611Z,99909.44
2022-12-04T12:02:40.993Z,99904.03
2022-12-04T12:03:57.756Z,99902.97
2022-12-04T12:05:14.146Z,99908.75
2022-12-04T12:06:32.056Z,99909.09
2022-12-04T12:07:40.316Z,99913.47
2022-12-04T12:08:54.548Z,99909.75
2022-12-04T12:10:01.708Z,99918.59
2022-12-04T12:11:11.043Z,99924.69
2022-12-04T12:12:19.146Z,99923.53
2022-12-04T12:13:29.910Z,99925.03
2022-12-04T12:14:38.910Z,99931.47
2022-12-04T12:15:47.480Z,99930.47
2022-12-04T12:16:59.577Z,99926.91
2022-12-04T12:18:19.161Z,99923.19
2022-12-04T12:19:41.394Z,99925.53
2022-12-04T12:20:58.165Z,99923.34
2022-12-04T12:22:07.576Z,99923.53
2022-12-04T12:23:23.428Z,99928.59
2022-12-04T12:24:27.456Z,99929.47
2022-12-04T12:25:35.167Z,99932.00
2022-12-04T12:26:45.203Z,99936.41
2022-12-04T12:28:02.365Z,99929.97
2022-12-04T12:29:14.350Z,99928.78
2022-12-04T12:30:19.483Z,99924.88